| Date | Temp High/Low | Dew Pt High/Low | Humidity | Wind | Max Wind | Wind Gust | Pressure | Precip. | Condition |
|---|---|---|---|---|---|---|---|---|---|
| 8/31/2022 | 88 °F / 43 °F | 39 °F / 21 °F | 32 % | 23 mph | - | 23.33 in | 0 in | ||
| 8/30/2022 | 86 °F / 46 °F | 43 °F / 28 °F | 39 % | 16 mph | - | 23.32 in | 0 in | ||
| 8/29/2022 | 82 °F / 45 °F | 45 °F / 32 °F | 40 % | 26 mph | - | 23.23 in | 0 in | ||
| 8/28/2022 | 82 °F / 39 °F | 37 °F / 25 °F | 33 % | 13 mph | - | 23.15 in | 0 in | ||
| 8/27/2022 | 81 °F / 54 °F | 32 °F / 23 °F | 25 % | 24 mph | - | 23.17 in | 0 in | ||
| 8/26/2022 | 82 °F / 41 °F | 36 °F / 27 °F | 32 % | 25 mph | - | 23.27 in | 0 in | ||
| 8/25/2022 | 84 °F / 45 °F | 39 °F / 28 °F | 30 % | 21 mph | - | 23.28 in | 0 in | ||
| 8/24/2022 | 84 °F / 46 °F | 32 °F / 19 °F | 21 % | 24 mph | - | 23.21 in | 0 in | ||
| 8/23/2022 | 86 °F / 46 °F | 37 °F / 21 °F | 25 % | 22 mph | - | 23.22 in | 0 in | ||
| 8/22/2022 | 88 °F / 48 °F | 41 °F / 27 °F | 30 % | 23 mph | - | 23.3 in | 0 in | ||
| 8/21/2022 | 86 °F / 46 °F | 39 °F / 28 °F | 29 % | 26 mph | - | 23.29 in | 0 in | ||
| 8/20/2022 | 84 °F / 48 °F | 41 °F / 30 °F | 31 % | 21 mph | - | 23.21 in | 0 in | ||
| 8/19/2022 | 84 °F / 48 °F | 45 °F / 30 °F | 41 % | 20 mph | - | 23.22 in | 0 in | ||
| 8/18/2022 | 81 °F / 48 °F | 54 °F / 32 °F | 53 % | 15 mph | - | 23.29 in | 0.07 in | ||
| 8/17/2022 | 77 °F / 55 °F | 54 °F / 39 °F | 56 % | 25 mph | - | 23.29 in | 0.02 in | ||
| 8/16/2022 | 84 °F / 50 °F | 46 °F / 30 °F | 38 % | 17 mph | - | 23.25 in | 0 in | ||
| 8/15/2022 | 84 °F / 45 °F | 34 °F / 25 °F | 27 % | 20 mph | - | 23.24 in | 0 in | ||
| 8/14/2022 | 84 °F / 43 °F | 39 °F / 23 °F | 33 % | 23 mph | - | 23.27 in | 0 in | ||
| 8/13/2022 | 86 °F / 41 °F | 43 °F / 25 °F | 36 % | 20 mph | - | 23.29 in | 0 in | ||
| 8/12/2022 | 84 °F / 43 °F | 43 °F / 23 °F | 37 % | 25 mph | - | 23.28 in | 0 in | ||
| 8/11/2022 | 82 °F / 46 °F | 48 °F / 36 °F | 49 % | 25 mph | - | 23.3 in | 0 in | ||
| 8/10/2022 | 79 °F / 45 °F | 48 °F / 41 °F | 54 % | 25 mph | - | 23.3 in | 0 in | ||
| 8/9/2022 | 75 °F / 50 °F | 54 °F / 41 °F | 62 % | 17 mph | - | 23.26 in | 0 in | ||
| 8/8/2022 | 75 °F / 48 °F | 57 °F / 41 °F | 65 % | 17 mph | - | 23.3 in | 0.14 in | ||
| 8/7/2022 | 81 °F / 46 °F | 48 °F / 34 °F | 50 % | 16 mph | - | 23.3 in | 0 in | ||
| 8/6/2022 | 79 °F / 45 °F | 52 °F / 30 °F | 58 % | 9 mph | - | 23.27 in | 0 in | ||
| 8/5/2022 | 63 °F / 54 °F | 57 °F / 50 °F | 89 % | 10 mph | - | 23.25 in | 1.28 in | ||
| 8/4/2022 | 81 °F / 43 °F | 57 °F / 41 °F | 72 % | 21 mph | - | 23.27 in | 0.7 in | ||
| 8/3/2022 | 84 °F / 45 °F | 54 °F / 41 °F | 60 % | 16 mph | - | 23.3 in | 0 in | ||
| 8/2/2022 | 81 °F / 46 °F | 54 °F / 41 °F | 65 % | 14 mph | - | 23.32 in | 0.02 in | ||
| 8/1/2022 | 72 °F / 57 °F | 55 °F / 48 °F | 70 % | 13 mph | - | 23.31 in | 0.08 in |